createdAt,value
2022-09-28T00:00:29.835Z,100785.19
2022-09-28T00:01:31.934Z,100801.41
2022-09-28T00:02:35.467Z,100826.53
2022-09-28T00:03:37.364Z,100804.50
2022-09-28T00:04:39.180Z,100828.94
2022-09-28T00:05:40.984Z,100866.41
2022-09-28T00:06:42.828Z,100763.44
2022-09-28T00:07:44.933Z,100767.47
2022-09-28T00:08:46.702Z,100808.09
2022-09-28T00:09:48.428Z,100880.59
2022-09-28T00:10:55.988Z,100768.50
2022-09-28T00:11:57.839Z,100734.97
2022-09-28T00:13:01.454Z,100852.06
2022-09-28T00:14:04.011Z,100847.50
2022-09-28T00:15:06.065Z,100843.59
2022-09-28T00:16:11.458Z,100906.44
2022-09-28T00:17:13.959Z,100857.09
2022-09-28T00:18:15.678Z,100847.88
2022-09-28T00:19:17.779Z,100889.75
2022-09-28T00:20:19.848Z,100847.50
2022-09-28T00:21:24.442Z,100899.34
2022-09-28T00:22:26.189Z,100831.09
2022-09-28T00:23:27.954Z,100812.00
2022-09-28T00:24:30.769Z,100769.06
2022-09-28T00:25:33.117Z,100849.47
2022-09-28T00:26:34.901Z,100851.25
2022-09-28T00:27:36.640Z,100863.16
2022-09-28T00:28:38.341Z,100844.44
2022-09-28T00:29:40.076Z,100872.19
2022-09-28T00:30:41.775Z,100861.84
2022-09-28T00:31:43.559Z,100901.41
2022-09-28T00:32:45.355Z,100868.28
2022-09-28T00:33:55.379Z,100908.66
2022-09-28T00:34:57.236Z,100786.66
2022-09-28T00:35:59.456Z,100739.06
2022-09-28T00:37:02.519Z,100909.50
2022-09-28T00:38:04.295Z,100887.41
2022-09-28T00:39:08.247Z,100907.84
2022-09-28T00:40:10.148Z,100823.56
2022-09-28T00:41:12.045Z,100870.25
2022-09-28T00:42:25.104Z,100744.91
2022-09-28T00:43:27.062Z,100827.94
2022-09-28T00:44:46.412Z,100904.75
2022-09-28T00:46:04.543Z,100877.25
2022-09-28T00:47:20.022Z,100890.03
2022-09-28T00:48:21.805Z,100915.84
2022-09-28T00:49:35.089Z,100880.59
2022-09-28T00:50:37.705Z,100865.22
2022-09-28T00:51:42.669Z,100920.34
2022-09-28T00:53:01.410Z,100863.16
2022-09-28T00:54:06.358Z,100910.16
2022-09-28T00:55:13.267Z,100910.16
2022-09-28T00:56:21.574Z,100893.28
2022-09-28T00:57:24.111Z,100876.31
2022-09-28T00:58:32.238Z,100771.66
2022-09-28T00:59:34.350Z,100872.94
2022-09-28T01:00:36.267Z,100852.34
2022-09-28T01:01:38.099Z,100773.34
2022-09-28T01:02:41.693Z,100844.44
2022-09-28T01:03:48.725Z,100918.19
2022-09-28T01:04:52.247Z,100922.78
2022-09-28T01:05:57.824Z,100902.16
2022-09-28T01:07:00.380Z,100755.94
2022-09-28T01:08:03.374Z,100753.59
2022-09-28T01:09:08.696Z,100903.56
2022-09-28T01:10:11.157Z,100787.88
2022-09-28T01:11:12.903Z,100847.81
2022-09-28T01:12:14.713Z,100868.13
2022-09-28T01:13:19.468Z,100801.41
2022-09-28T01:14:24.950Z,100871.59
2022-09-28T01:15:29.269Z,100770.16
2022-09-28T01:16:46.229Z,100850.63
2022-09-28T01:18:10.145Z,100871.91
2022-09-28T01:19:29.751Z,100913.03
2022-09-28T01:20:59.800Z,100905.91
2022-09-28T01:22:35.405Z,100917.50
2022-09-28T01:23:55.784Z,100917.91
2022-09-28T01:25:00.301Z,100913.91
2022-09-28T01:26:34.301Z,100913.69
2022-09-28T01:27:51.597Z,100888.38
2022-09-28T01:29:00.476Z,100897.88
2022-09-28T01:30:11.989Z,100917.00
2022-09-28T01:31:16.508Z,100917.38
2022-09-28T01:32:33.133Z,100915.31
2022-09-28T01:33:46.766Z,100854.63
2022-09-28T01:35:15.537Z,100780.53
2022-09-28T01:36:27.216Z,100882.94
2022-09-28T01:37:55.879Z,100895.06
2022-09-28T01:39:05.928Z,100848.19
2022-09-28T01:40:10.402Z,100887.88
2022-09-28T01:41:13.647Z,100907.19
2022-09-28T01:42:30.102Z,100874.94
2022-09-28T01:43:35.929Z,100882.84
2022-09-28T01:44:44.564Z,100926.03
2022-09-28T01:46:05.008Z,100930.25
2022-09-28T01:47:12.596Z,100861.81
2022-09-28T01:48:26.445Z,100888.09
2022-09-28T01:49:34.839Z,100885.13
2022-09-28T01:50:42.492Z,100924.94
2022-09-28T01:51:51.760Z,100874.59
2022-09-28T01:53:43.140Z,100921.38
2022-09-28T01:54:59.179Z,100900.94
2022-09-28T01:56:11.638Z,100931.56
2022-09-28T01:57:38.508Z,100934.44
2022-09-28T01:58:45.816Z,100896.28
2022-09-28T02:00:03.052Z,100921.38
2022-09-28T02:01:21.853Z,100894.31
2022-09-28T02:02:29.669Z,100900.13
2022-09-28T02:03:57.442Z,100908.13
2022-09-28T02:05:13.473Z,100925.75
2022-09-28T02:06:23.205Z,100795.34
2022-09-28T02:07:38.230Z,100799.44
2022-09-28T02:08:46.848Z,100893.13
2022-09-28T02:10:03.296Z,100894.91
2022-09-28T02:11:19.575Z,100914.38
2022-09-28T02:12:33.655Z,100943.31
2022-09-28T02:13:43.384Z,100941.47
2022-09-28T02:14:49.196Z,100943.50
2022-09-28T02:15:56.218Z,100907.59
2022-09-28T02:16:59.106Z,100902.94
2022-09-28T02:18:05.084Z,100908.16
2022-09-28T02:19:12.870Z,100779.13
2022-09-28T02:20:16.030Z,100921.59
2022-09-28T02:21:20.796Z,100913.56
2022-09-28T02:22:34.163Z,100897.41
2022-09-28T02:23:39.825Z,100822.09
2022-09-28T02:25:13.886Z,100913.91
2022-09-28T02:26:22.966Z,100954.31
2022-09-28T02:27:40.068Z,100938.06
2022-09-28T02:28:41.960Z,100859.38
2022-09-28T02:29:43.767Z,100825.53
2022-09-28T02:30:46.164Z,100927.44
2022-09-28T02:31:51.055Z,100877.94
2022-09-28T02:32:59.141Z,100950.47
2022-09-28T02:34:01.113Z,100920.66
2022-09-28T02:35:03.033Z,100870.31
2022-09-28T02:36:05.764Z,100947.13
2022-09-28T02:37:12.639Z,100949.66
2022-09-28T02:38:15.262Z,100822.91
2022-09-28T02:39:19.162Z,100947.94
2022-09-28T02:40:29.136Z,100777.91
2022-09-28T02:41:46.217Z,100909.00
2022-09-28T02:43:02.217Z,100944.69
2022-09-28T02:44:39.476Z,100927.16
2022-09-28T02:46:06.330Z,100942.38
2022-09-28T02:47:41.009Z,100853.16
2022-09-28T02:49:17.321Z,100935.09
2022-09-28T02:50:21.131Z,100944.22
2022-09-28T02:51:30.561Z,100886.44
2022-09-28T02:52:32.634Z,100948.91
2022-09-28T02:53:46.813Z,100951.78
2022-09-28T02:55:10.174Z,100943.88
2022-09-28T02:56:54.972Z,100928.19
2022-09-28T02:58:18.987Z,100947.31
2022-09-28T02:59:29.856Z,100948.56
2022-09-28T03:00:42.226Z,100919.06
2022-09-28T03:02:11.848Z,100948.56
2022-09-28T03:03:35.474Z,100937.22
2022-09-28T03:04:52.541Z,100909.91
2022-09-28T03:06:23.694Z,100885.31
2022-09-28T03:07:34.102Z,100942.50
2022-09-28T03:08:53.393Z,100912.81
2022-09-28T03:10:07.593Z,100916.34
2022-09-28T03:11:22.420Z,100917.59
2022-09-28T03:12:29.392Z,100854.63
2022-09-28T03:13:32.695Z,100939.00
2022-09-28T03:14:34.486Z,100905.53
2022-09-28T03:15:37.303Z,100910.41
2022-09-28T03:16:44.370Z,100791.88
2022-09-28T03:17:46.489Z,100887.94
2022-09-28T03:18:48.949Z,100890.28
2022-09-28T03:19:51.203Z,100941.34
2022-09-28T03:20:52.949Z,100895.47
2022-09-28T03:21:55.728Z,100891.66
2022-09-28T03:23:22.903Z,100945.19
2022-09-28T03:24:19.629Z,100910.03
2022-09-28T03:25:21.405Z,100913.38
2022-09-28T03:26:23.139Z,100904.50
2022-09-28T03:27:24.894Z,100911.44
2022-09-28T03:28:27.253Z,100923.53
2022-09-28T03:29:31.661Z,100834.97
2022-09-28T03:30:37.084Z,100883.72
2022-09-28T03:31:39.057Z,100818.63
2022-09-28T03:32:41.550Z,100906.00
2022-09-28T03:33:44.461Z,100914.94
2022-09-28T03:34:46.347Z,100825.25
2022-09-28T03:35:50.467Z,100944.31
2022-09-28T03:36:52.962Z,100902.19
2022-09-28T03:37:56.510Z,100810.63
2022-09-28T03:39:00.359Z,100877.41
2022-09-28T03:40:03.420Z,100893.78
2022-09-28T03:41:05.386Z,100920.84
2022-09-28T03:42:11.875Z,100910.56
2022-09-28T03:43:18.724Z,100822.09
2022-09-28T03:44:20.820Z,100905.75
2022-09-28T03:45:23.475Z,100903.69
2022-09-28T03:46:26.490Z,100938.75
2022-09-28T03:47:31.708Z,100927.38
2022-09-28T03:48:35.274Z,100865.94
2022-09-28T03:49:37.293Z,100916.56
2022-09-28T03:50:39.043Z,100890.66
2022-09-28T03:51:40.888Z,100910.41
2022-09-28T03:52:43.843Z,100772.13
2022-09-28T03:53:45.681Z,100801.00
2022-09-28T03:54:49.320Z,100899.69
2022-09-28T03:55:53.412Z,100937.88
2022-09-28T03:56:55.278Z,100908.44
2022-09-28T03:57:57.257Z,100864.25
2022-09-28T03:58:59.031Z,100795.59
2022-09-28T04:00:02.088Z,100876.75
2022-09-28T04:01:07.167Z,100892.97
2022-09-28T04:02:09.178Z,100931.94
2022-09-28T04:03:10.940Z,100929.97
2022-09-28T04:04:13.574Z,100932.97
2022-09-28T04:05:15.338Z,100926.63
2022-09-28T04:06:17.156Z,100928.94
2022-09-28T04:07:18.892Z,100880.75
2022-09-28T04:08:21.465Z,100911.81
2022-09-28T04:09:23.830Z,100922.69
2022-09-28T04:10:26.303Z,100947.88
2022-09-28T04:11:38.518Z,100910.50
2022-09-28T04:12:54.935Z,100903.47
2022-09-28T04:13:56.948Z,100908.50
2022-09-28T04:14:58.783Z,100894.66
2022-09-28T04:16:01.729Z,100892.97
2022-09-28T04:17:07.339Z,100924.66
2022-09-28T04:18:13.776Z,100815.28
2022-09-28T04:19:31.025Z,100924.41
2022-09-28T04:21:07.630Z,100938.84
2022-09-28T04:22:14.396Z,100926.78
2022-09-28T04:23:16.169Z,100884.22
2022-09-28T04:24:20.379Z,100921.88
2022-09-28T04:25:22.502Z,100890.72
2022-09-28T04:26:26.411Z,100954.13
2022-09-28T04:27:46.554Z,100907.59
2022-09-28T04:29:07.142Z,100922.69
2022-09-28T04:30:10.819Z,100940.16
2022-09-28T04:31:17.129Z,100927.28
2022-09-28T04:32:19.078Z,100958.06
2022-09-28T04:33:20.789Z,100964.78
2022-09-28T04:34:23.343Z,100959.75
2022-09-28T04:35:25.316Z,100921.31
2022-09-28T04:36:27.116Z,100912.19
2022-09-28T04:37:31.299Z,100931.56
2022-09-28T04:38:51.712Z,100852.00
2022-09-28T04:39:54.362Z,100928.09
2022-09-28T04:40:56.128Z,100954.97
2022-09-28T04:41:57.980Z,100866.72
2022-09-28T04:42:59.787Z,100946.38
2022-09-28T04:44:01.973Z,100825.34
2022-09-28T04:45:04.929Z,100928.84
2022-09-28T04:46:10.717Z,100940.81
2022-09-28T04:47:18.904Z,100927.66
2022-09-28T04:48:40.843Z,100902.28
2022-09-28T04:49:59.798Z,100927.75
2022-09-28T04:51:06.784Z,100867.50
2022-09-28T04:52:08.863Z,100854.81
2022-09-28T04:53:10.660Z,100913.00
2022-09-28T04:54:12.477Z,100927.00
2022-09-28T04:55:14.635Z,100911.69
2022-09-28T04:56:18.089Z,100956.56
2022-09-28T04:57:19.811Z,100935.00
2022-09-28T04:58:21.580Z,100889.03
2022-09-28T04:59:23.429Z,100890.91
2022-09-28T05:00:25.285Z,100938.47
2022-09-28T05:01:41.377Z,100945.28
2022-09-28T05:03:01.883Z,100895.75
2022-09-28T05:04:26.126Z,100907.53
2022-09-28T05:05:48.063Z,100944.69
2022-09-28T05:07:09.360Z,100947.03
2022-09-28T05:08:12.372Z,100903.50
2022-09-28T05:09:15.296Z,100927.66
2022-09-28T05:10:18.815Z,100901.09
2022-09-28T05:11:21.703Z,100929.34
2022-09-28T05:12:24.319Z,100961.59
2022-09-28T05:13:26.657Z,100932.84
2022-09-28T05:14:28.403Z,100940.25
2022-09-28T05:15:31.086Z,100880.28
2022-09-28T05:16:34.178Z,100917.28
2022-09-28T05:18:11.430Z,100901.25
2022-09-28T05:19:30.277Z,100940.22
2022-09-28T05:20:41.497Z,100907.19
2022-09-28T05:21:45.511Z,100961.13
2022-09-28T05:22:47.285Z,100964.47
2022-09-28T05:23:49.033Z,100838.63
2022-09-28T05:24:50.891Z,100939.78
2022-09-28T05:25:53.369Z,100843.72
2022-09-28T05:27:05.394Z,100950.75
2022-09-28T05:28:08.125Z,100803.00
2022-09-28T05:29:28.984Z,100915.31
2022-09-28T05:31:11.852Z,100949.84
2022-09-28T05:32:33.882Z,100919.19
2022-09-28T05:33:46.183Z,100939.31
2022-09-28T05:34:48.859Z,100838.28
2022-09-28T05:36:01.059Z,100928.47
2022-09-28T05:37:03.906Z,100947.13
2022-09-28T05:38:05.981Z,100950.97
2022-09-28T05:39:09.332Z,100904.25
2022-09-28T05:40:11.830Z,100965.50
2022-09-28T05:41:14.223Z,100922.31
2022-09-28T05:42:16.020Z,100898.44
2022-09-28T05:43:18.279Z,100953.16
2022-09-28T05:44:20.026Z,100867.63
2022-09-28T05:45:22.890Z,100971.25
2022-09-28T05:46:25.383Z,100931.22
2022-09-28T05:47:27.695Z,100926.63
2022-09-28T05:48:30.188Z,100928.69
2022-09-28T05:49:31.996Z,100890.66
2022-09-28T05:50:35.951Z,100910.03
2022-09-28T05:51:38.322Z,100901.94
2022-09-28T05:52:40.760Z,100830.28
2022-09-28T05:53:43.249Z,100935.59
2022-09-28T05:54:45.567Z,100988.09
2022-09-28T05:55:47.929Z,100862.16
2022-09-28T05:56:49.735Z,100940.50
2022-09-28T05:57:51.835Z,100933.94
2022-09-28T05:58:53.898Z,100892.84
2022-09-28T05:59:57.878Z,100844.03
2022-09-28T06:00:59.751Z,100913.91
2022-09-28T06:02:02.481Z,100967.94
2022-09-28T06:03:09.307Z,100942.53
2022-09-28T06:04:11.698Z,100936.09
2022-09-28T06:05:13.777Z,100973.81
2022-09-28T06:06:15.636Z,100891.22
2022-09-28T06:07:19.065Z,100952.03
2022-09-28T06:08:21.274Z,100934.22
2022-09-28T06:09:31.325Z,100865.25
2022-09-28T06:10:53.557Z,100928.03
2022-09-28T06:11:55.495Z,100937.88
2022-09-28T06:13:08.680Z,100968.91
2022-09-28T06:14:11.058Z,100939.50
2022-09-28T06:15:13.307Z,100948.16
2022-09-28T06:16:16.845Z,100889.16
2022-09-28T06:17:18.835Z,100934.91
2022-09-28T06:18:26.854Z,100955.25
2022-09-28T06:19:47.455Z,100913.19
2022-09-28T06:21:01.132Z,100949.44
2022-09-28T06:22:09.130Z,100950.47
2022-09-28T06:23:19.921Z,100910.59
2022-09-28T06:24:21.666Z,100955.50
2022-09-28T06:25:24.524Z,100979.81
2022-09-28T06:26:26.224Z,100879.38
2022-09-28T06:27:28.544Z,100855.91
2022-09-28T06:28:30.522Z,100939.94
2022-09-28T06:29:32.488Z,100956.53
2022-09-28T06:30:38.252Z,100842.88
2022-09-28T06:31:42.370Z,100899.34
2022-09-28T06:32:44.507Z,100905.97
2022-09-28T06:33:48.058Z,100945.81
2022-09-28T06:34:55.425Z,100954.22
2022-09-28T06:36:00.226Z,100944.41
2022-09-28T06:37:04.725Z,100907.25
2022-09-28T06:38:07.966Z,100855.69
2022-09-28T06:39:09.726Z,100962.16
2022-09-28T06:40:12.050Z,100868.06
2022-09-28T06:41:14.769Z,100933.25
2022-09-28T06:42:18.737Z,100960.91
2022-09-28T06:43:48.196Z,100979.88
2022-09-28T06:45:09.415Z,100913.84
2022-09-28T06:46:40.266Z,100958.31
2022-09-28T06:47:59.544Z,100956.38
2022-09-28T06:49:15.102Z,100979.03
2022-09-28T06:50:42.304Z,100940.25
2022-09-28T06:52:22.362Z,100984.16
2022-09-28T06:53:47.204Z,100961.88
2022-09-28T06:55:11.854Z,100958.13
2022-09-28T06:56:18.090Z,100987.81
2022-09-28T06:57:19.990Z,100991.94
2022-09-28T06:58:23.369Z,100939.75
2022-09-28T06:59:25.553Z,100864.94
2022-09-28T07:00:29.280Z,100845.19
2022-09-28T07:01:31.145Z,100943.28
2022-09-28T07:02:53.328Z,100971.84
2022-09-28T07:04:19.613Z,100949.69
2022-09-28T07:05:51.335Z,100926.22
2022-09-28T07:07:11.601Z,100931.03
2022-09-28T07:08:32.854Z,100956.59
2022-09-28T07:10:00.428Z,100959.34
2022-09-28T07:11:39.708Z,100913.06
2022-09-28T07:13:12.782Z,100946.31
2022-09-28T07:14:40.037Z,100894.56
2022-09-28T07:15:47.835Z,100868.47
2022-09-28T07:17:11.698Z,100937.06
2022-09-28T07:18:13.149Z,100932.44
2022-09-28T07:19:17.452Z,100952.53
2022-09-28T07:20:20.256Z,100880.59
2022-09-28T07:21:29.796Z,100936.56
2022-09-28T07:22:43.105Z,100875.13
2022-09-28T07:23:53.715Z,100947.50
2022-09-28T07:24:58.650Z,100969.28
2022-09-28T07:26:24.550Z,100925.31
2022-09-28T07:28:02.588Z,100992.00
2022-09-28T07:29:19.007Z,100959.72
2022-09-28T07:30:35.798Z,100991.38
2022-09-28T07:31:41.939Z,100939.75
2022-09-28T07:33:03.708Z,100972.06
2022-09-28T07:34:43.962Z,100956.59
2022-09-28T07:36:06.578Z,100962.66
2022-09-28T07:37:11.848Z,100924.69
2022-09-28T07:38:13.646Z,100968.00
2022-09-28T07:39:15.349Z,100934.53
2022-09-28T07:40:36.037Z,100928.81
2022-09-28T07:41:41.506Z,100944.16
2022-09-28T07:42:43.520Z,100857.34
2022-09-28T07:43:46.981Z,100826.13
2022-09-28T07:44:48.878Z,100939.91
2022-09-28T07:45:52.791Z,100953.72
2022-09-28T07:46:54.997Z,100959.00
2022-09-28T07:49:39.322Z,100971.59
2022-09-28T07:51:04.885Z,100991.16
2022-09-28T07:52:35.233Z,100922.00
2022-09-28T07:53:50.185Z,100997.44
2022-09-28T07:55:12.868Z,100974.16
2022-09-28T07:56:37.744Z,100975.59
2022-09-28T07:58:01.682Z,100994.06
2022-09-28T07:59:26.474Z,100874.97
2022-09-28T08:00:48.407Z,100953.81
2022-09-28T08:01:51.271Z,100980.59
2022-09-28T08:02:53.027Z,100971.38
2022-09-28T08:03:59.245Z,100977.03
2022-09-28T08:05:02.529Z,100977.00
2022-09-28T08:06:07.319Z,100958.53
2022-09-28T08:07:10.943Z,100907.09
2022-09-28T08:08:13.473Z,101006.94
2022-09-28T08:09:15.328Z,100936.56
2022-09-28T08:10:37.889Z,100968.78
2022-09-28T08:12:14.905Z,100988.41
2022-09-28T08:13:23.468Z,100967.63
2022-09-28T08:14:48.068Z,100959.16
2022-09-28T08:16:17.966Z,100955.06
2022-09-28T08:17:28.332Z,100872.84
2022-09-28T08:18:33.268Z,100967.94
2022-09-28T08:19:53.804Z,100891.16
2022-09-28T08:21:14.057Z,100981.81
2022-09-28T08:22:20.562Z,100886.22
2022-09-28T08:23:25.092Z,100974.94
2022-09-28T08:24:31.090Z,100951.19
2022-09-28T08:25:34.189Z,100974.03
2022-09-28T08:26:38.126Z,100945.31
2022-09-28T08:27:39.891Z,100975.00
2022-09-28T08:28:43.285Z,100998.63
2022-09-28T08:30:05.504Z,100993.44
2022-09-28T08:31:31.248Z,100970.00
2022-09-28T08:32:51.036Z,100995.19
2022-09-28T08:34:01.901Z,100975.50
2022-09-28T08:35:22.459Z,100978.41
2022-09-28T08:36:44.434Z,100988.47
2022-09-28T08:38:04.851Z,100974.69
2022-09-28T08:39:38.387Z,100945.56
2022-09-28T08:41:34.956Z,101009.78
2022-09-28T08:42:45.996Z,100978.72
2022-09-28T08:44:09.808Z,101013.69
2022-09-28T08:45:44.142Z,100962.53
2022-09-28T08:47:29.691Z,100939.06
2022-09-28T08:49:20.691Z,100985.81
2022-09-28T08:51:09.872Z,100992.78
2022-09-28T08:52:28.434Z,100994.00
2022-09-28T08:54:08.154Z,101015.66
2022-09-28T08:55:37.326Z,100916.88
2022-09-28T08:56:50.597Z,101011.81
2022-09-28T08:58:09.355Z,101015.78
2022-09-28T08:59:16.385Z,100947.44
2022-09-28T09:00:28.067Z,101010.75
2022-09-28T09:01:40.633Z,101009.88
2022-09-28T09:02:47.952Z,100991.63
2022-09-28T09:03:52.729Z,100990.97
2022-09-28T09:05:14.985Z,101006.06
2022-09-28T09:07:08.588Z,101013.06
2022-09-28T09:08:33.038Z,101015.19
2022-09-28T09:09:35.275Z,101013.69
2022-09-28T09:11:09.579Z,100996.72
2022-09-28T09:12:35.940Z,101016.06
2022-09-28T09:13:50.064Z,101015.38
2022-09-28T09:14:58.921Z,101019.13
2022-09-28T09:16:25.699Z,101015.78
2022-09-28T09:18:19.997Z,100992.25
2022-09-28T09:19:48.907Z,101022.94
2022-09-28T09:20:59.303Z,101012.66
2022-09-28T09:22:38.803Z,100985.63
2022-09-28T09:23:55.508Z,100976.53
2022-09-28T09:25:19.726Z,100997.94
2022-09-28T09:26:35.100Z,100963.56
2022-09-28T09:27:43.593Z,101026.41
2022-09-28T09:28:45.312Z,101028.31
2022-09-28T09:30:03.494Z,101023.28
2022-09-28T09:31:25.224Z,101023.91
2022-09-28T09:32:34.360Z,100993.06
2022-09-28T09:33:54.596Z,101020.97
2022-09-28T09:35:22.735Z,101020.44
2022-09-28T09:37:20.648Z,100998.56
2022-09-28T09:39:09.111Z,101023.00
2022-09-28T09:41:01.292Z,100993.44
2022-09-28T09:42:40.379Z,101021.31
2022-09-28T09:44:14.799Z,101019.41
2022-09-28T09:45:50.111Z,100995.69
2022-09-28T09:47:19.938Z,100998.97
2022-09-28T09:49:04.359Z,101025.91
2022-09-28T09:50:17.968Z,101028.19
2022-09-28T09:51:28.038Z,101031.47
2022-09-28T09:52:46.726Z,100993.44
2022-09-28T09:54:00.114Z,100990.97
2022-09-28T09:55:11.012Z,101032.47
2022-09-28T09:57:13.349Z,101032.19
2022-09-28T09:58:47.870Z,100959.78
2022-09-28T10:00:11.090Z,101035.94
2022-09-28T10:01:19.526Z,100942.38
2022-09-28T10:02:53.370Z,100992.22
2022-09-28T10:04:40.479Z,101030.50
2022-09-28T10:06:01.465Z,101013.00
2022-09-28T10:07:05.871Z,100977.31
2022-09-28T10:08:09.432Z,101034.19
2022-09-28T10:09:28.192Z,100969.97
2022-09-28T10:10:44.613Z,100961.59
2022-09-28T10:11:51.993Z,101025.69
2022-09-28T10:12:54.419Z,100897.81
2022-09-28T10:13:57.851Z,101008.53
2022-09-28T10:15:27.994Z,101006.44
2022-09-28T10:16:51.215Z,101010.47
2022-09-28T10:18:16.174Z,100997.69
2022-09-28T10:19:37.896Z,100990.56
2022-09-28T10:20:58.269Z,100975.03
2022-09-28T10:22:22.696Z,101034.00
2022-09-28T10:23:31.541Z,101034.38
2022-09-28T10:24:38.774Z,101032.69
2022-09-28T10:25:44.026Z,100961.59
2022-09-28T10:26:50.972Z,101036.81
2022-09-28T10:27:52.821Z,101024.22
2022-09-28T10:29:02.081Z,100990.88
2022-09-28T10:30:10.198Z,101035.78
2022-09-28T10:31:34.462Z,101029.75
2022-09-28T10:32:41.438Z,101032.47
2022-09-28T10:33:43.275Z,101016.09
2022-09-28T10:34:50.174Z,100994.72
2022-09-28T10:35:54.873Z,100984.66
2022-09-28T10:36:58.383Z,101028.31
2022-09-28T10:38:04.760Z,101029.97
2022-09-28T10:39:30.154Z,101029.63
2022-09-28T10:40:40.539Z,101025.00
2022-09-28T10:41:49.897Z,100989.06
2022-09-28T10:43:07.907Z,101035.88
2022-09-28T10:44:18.816Z,101035.69
2022-09-28T10:45:44.973Z,101034.25
2022-09-28T10:46:57.058Z,100963.94
2022-09-28T10:48:00.915Z,100999.38
2022-09-28T10:49:02.631Z,101036.06
2022-09-28T10:50:21.287Z,100984.59
2022-09-28T10:51:43.752Z,101040.91
2022-09-28T10:52:50.550Z,101000.88
2022-09-28T10:54:19.406Z,101036.31
2022-09-28T10:55:33.332Z,101037.34
2022-09-28T10:56:37.794Z,101028.75
2022-09-28T10:57:46.071Z,101012.28
2022-09-28T10:58:48.190Z,101031.84
2022-09-28T10:59:57.776Z,100993.06
2022-09-28T11:01:29.426Z,101022.63
2022-09-28T11:02:36.326Z,101018.88
2022-09-28T11:03:56.442Z,100962.28
2022-09-28T11:05:01.487Z,100968.53
2022-09-28T11:06:08.825Z,101020.75
2022-09-28T11:07:21.210Z,101031.47
2022-09-28T11:08:28.855Z,100997.03
2022-09-28T11:09:36.978Z,100899.50
2022-09-28T11:10:42.054Z,101033.38
2022-09-28T11:11:48.237Z,101010.47
2022-09-28T11:12:51.372Z,101002.69
2022-09-28T11:13:57.964Z,101031.00
2022-09-28T11:15:06.524Z,101030.78
2022-09-28T11:16:17.913Z,101000.78
2022-09-28T11:17:31.330Z,101029.63
2022-09-28T11:18:34.480Z,100998.28
2022-09-28T11:19:41.771Z,100925.19
2022-09-28T11:20:45.395Z,100984.19
2022-09-28T11:21:47.326Z,100904.13
2022-09-28T11:22:54.634Z,101025.59
2022-09-28T11:24:27.910Z,101015.03
2022-09-28T11:25:33.343Z,100987.88
2022-09-28T11:26:39.511Z,100954.34
2022-09-28T11:27:42.445Z,100900.66
2022-09-28T11:28:51.633Z,100988.91
2022-09-28T11:30:00.949Z,100966.25
2022-09-28T11:31:09.585Z,100977.38
2022-09-28T11:32:40.121Z,100963.75
2022-09-28T11:34:16.784Z,100996.53
2022-09-28T11:36:02.734Z,101019.25
2022-09-28T11:37:16.440Z,101019.25
2022-09-28T11:39:05.320Z,101018.22
2022-09-28T11:40:29.348Z,101016.78
2022-09-28T11:41:31.327Z,101018.41
2022-09-28T11:43:16.873Z,101015.91
2022-09-28T11:44:34.922Z,101015.91
2022-09-28T11:45:59.453Z,100939.94
2022-09-28T11:47:27.310Z,100974.47
2022-09-28T11:48:41.483Z,100973.09
2022-09-28T11:49:47.062Z,100943.28
2022-09-28T11:50:54.771Z,101012.31
2022-09-28T11:52:02.592Z,100988.13
2022-09-28T11:53:15.032Z,100947.03
2022-09-28T11:54:38.712Z,100974.13
2022-09-28T11:55:52.492Z,100993.16
2022-09-28T11:56:56.086Z,100939.38
2022-09-28T11:58:07.325Z,101006.88
2022-09-28T11:59:15.316Z,101001.63
2022-09-28T12:00:22.705Z,100928.44
2022-09-28T12:01:57.384Z,101013.59
2022-09-28T12:03:29.417Z,100999.56
2022-09-28T12:04:38.596Z,101002.09
2022-09-28T12:06:01.119Z,100978.56
2022-09-28T12:07:17.912Z,100953.41
2022-09-28T12:08:29.134Z,101003.53
2022-09-28T12:10:00.035Z,101002.31
2022-09-28T12:11:15.931Z,100972.06
2022-09-28T12:12:54.701Z,100983.22
2022-09-28T12:14:00.683Z,100981.50
2022-09-28T12:15:15.985Z,100971.59
2022-09-28T12:16:45.224Z,101009.19
2022-09-28T12:17:45.299Z,100937.47
2022-09-28T12:19:07.012Z,100877.31
2022-09-28T12:20:27.422Z,101005.06
2022-09-28T12:21:32.228Z,101009.84
2022-09-28T12:22:42.932Z,100931.63
2022-09-28T12:23:45.725Z,100845.84
2022-09-28T12:24:51.183Z,101005.19
2022-09-28T12:25:59.574Z,100974.72
2022-09-28T12:27:10.238Z,101001.47
2022-09-28T12:28:38.349Z,101003.78
2022-09-28T12:29:49.829Z,100973.53
2022-09-28T12:30:53.750Z,100985.31
2022-09-28T12:32:09.878Z,100996.66
2022-09-28T12:33:15.363Z,100996.97
2022-09-28T12:34:17.273Z,100981.41
2022-09-28T12:35:44.962Z,100872.66
2022-09-28T12:36:47.563Z,101008.97
2022-09-28T12:38:02.301Z,101005.84
2022-09-28T12:39:46.821Z,100975.66
2022-09-28T12:41:12.482Z,100984.78
2022-09-28T12:42:42.418Z,101001.94
2022-09-28T12:43:56.135Z,101008.00
2022-09-28T12:45:20.820Z,100996.69
2022-09-28T12:46:34.980Z,101004.66
2022-09-28T12:47:36.930Z,101001.31
2022-09-28T12:49:27.264Z,101013.38
2022-09-28T12:50:38.998Z,100988.25
2022-09-28T12:52:00.386Z,101000.09
2022-09-28T12:53:10.792Z,100970.00
2022-09-28T12:54:42.511Z,101006.91
2022-09-28T12:55:57.993Z,101005.50
2022-09-28T12:57:02.667Z,100999.22
2022-09-28T12:58:20.993Z,100961.88
2022-09-28T12:59:32.464Z,100931.66
2022-09-28T13:01:13.937Z,101000.09
2022-09-28T13:03:07.967Z,101001.78
2022-09-28T13:04:17.296Z,100969.47
2022-09-28T13:05:37.371Z,100998.44
2022-09-28T13:06:55.745Z,100999.88
2022-09-28T13:08:28.320Z,101003.44
2022-09-28T13:09:53.120Z,100972.38
2022-09-28T13:11:18.264Z,101004.72
2022-09-28T13:12:25.931Z,101006.34
2022-09-28T13:13:43.357Z,101005.69
2022-09-28T13:15:03.515Z,100998.84
2022-09-28T13:16:23.417Z,101004.47
2022-09-28T13:17:26.836Z,101003.81
2022-09-28T13:18:40.795Z,101001.31
2022-09-28T13:20:13.126Z,100984.53
2022-09-28T13:21:20.699Z,100998.19
2022-09-28T13:22:34.237Z,101000.44
2022-09-28T13:23:39.402Z,101002.97
2022-09-28T13:24:44.828Z,100969.34
2022-09-28T13:25:57.352Z,100975.50
2022-09-28T13:27:05.893Z,100909.56
2022-09-28T13:28:07.766Z,100937.09
2022-09-28T13:29:13.353Z,100946.53
2022-09-28T13:30:19.467Z,100957.16
2022-09-28T13:31:33.048Z,100973.53
2022-09-28T13:32:38.987Z,100958.50
2022-09-28T13:33:44.651Z,100889.63
2022-09-28T13:34:49.895Z,101001.25
2022-09-28T13:35:51.835Z,100922.41
2022-09-28T13:37:11.251Z,100992.91
2022-09-28T13:38:16.470Z,101001.69
2022-09-28T13:39:44.357Z,100997.56
2022-09-28T13:41:13.564Z,100993.41
2022-09-28T13:42:30.430Z,100996.13
2022-09-28T13:43:47.982Z,100956.63
2022-09-28T13:45:09.642Z,100997.16